createdAt,value
2024-03-24T00:04:18.438Z,100.00
2024-03-24T00:09:21.034Z,100.00
2024-03-24T00:14:23.657Z,100.00
2024-03-24T00:19:26.743Z,100.00
2024-03-24T00:24:29.371Z,100.00
2024-03-24T00:29:32.657Z,100.00
2024-03-24T00:34:35.389Z,100.00
2024-03-24T00:39:38.020Z,100.00
2024-03-24T00:44:40.712Z,100.00
2024-03-24T00:49:43.450Z,100.00
2024-03-24T00:54:46.094Z,100.00
2024-03-24T00:59:48.975Z,100.00
2024-03-24T01:04:51.606Z,100.00
2024-03-24T01:09:55.917Z,100.00
2024-03-24T01:14:58.566Z,100.00
2024-03-24T01:20:01.199Z,100.00
2024-03-24T01:25:04.303Z,100.00
2024-03-24T01:30:08.028Z,100.00
2024-03-24T01:35:10.726Z,100.00
2024-03-24T01:40:13.680Z,100.00
2024-03-24T01:45:16.356Z,100.00
2024-03-24T01:50:19.029Z,100.00
2024-03-24T01:55:22.267Z,100.00
2024-03-24T02:00:25.216Z,100.00
2024-03-24T02:05:28.920Z,100.00
2024-03-24T02:10:31.916Z,100.00
2024-03-24T02:15:34.649Z,100.00
2024-03-24T02:20:37.363Z,100.00
2024-03-24T02:25:40.003Z,100.00
2024-03-24T02:30:42.690Z,100.00
2024-03-24T02:35:46.478Z,100.00
2024-03-24T02:40:49.699Z,100.00
2024-03-24T02:45:59.227Z,100.00
2024-03-24T02:51:01.876Z,100.00
2024-03-24T02:56:06.268Z,100.00
2024-03-24T03:01:09.253Z,100.00
2024-03-24T03:06:15.930Z,100.00
2024-03-24T03:11:19.217Z,100.00
2024-03-24T03:16:21.859Z,100.00
2024-03-24T03:21:26.380Z,100.00
2024-03-24T03:26:29.486Z,100.00
2024-03-24T03:31:32.086Z,100.00
2024-03-24T03:36:34.746Z,100.00
2024-03-24T03:41:41.254Z,100.00
2024-03-24T03:46:44.330Z,100.00
2024-03-24T03:51:54.454Z,100.00
2024-03-24T03:56:57.100Z,100.00
2024-03-24T04:02:00.104Z,100.00
2024-03-24T04:07:03.251Z,100.00
2024-03-24T04:12:07.247Z,100.00
2024-03-24T04:17:09.980Z,100.00
2024-03-24T04:22:13.562Z,100.00
2024-03-24T04:27:17.449Z,100.00
2024-03-24T04:32:20.114Z,100.00
2024-03-24T04:37:23.300Z,100.00
2024-03-24T04:42:27.197Z,100.00
2024-03-24T04:47:30.987Z,100.00
2024-03-24T04:52:33.863Z,100.00
2024-03-24T04:57:36.508Z,100.00
2024-03-24T05:02:39.203Z,100.00
2024-03-24T05:07:41.944Z,100.00
2024-03-24T05:12:44.565Z,100.00
2024-03-24T05:17:47.754Z,100.00
2024-03-24T05:22:50.401Z,100.00
2024-03-24T05:27:54.601Z,100.00
2024-03-24T05:32:57.341Z,100.00
2024-03-24T05:38:00.538Z,100.00
2024-03-24T05:43:03.838Z,100.00
2024-03-24T05:48:07.495Z,100.00
2024-03-24T05:53:10.186Z,100.00
2024-03-24T05:58:12.939Z,100.00
2024-03-24T06:03:15.782Z,100.00
2024-03-24T06:08:20.957Z,100.00
2024-03-24T06:13:26.738Z,100.00
2024-03-24T06:18:32.180Z,100.00
2024-03-24T06:23:34.858Z,100.00
2024-03-24T06:28:38.060Z,100.00
2024-03-24T06:33:40.703Z,100.00
2024-03-24T06:38:43.325Z,100.00
2024-03-24T06:43:46.613Z,100.00
2024-03-24T06:48:50.218Z,100.00
2024-03-24T06:53:53.337Z,100.00
2024-03-24T06:58:56.847Z,100.00
2024-03-24T07:04:00.126Z,100.00
2024-03-24T07:09:02.786Z,100.00
2024-03-24T07:14:05.378Z,100.00
2024-03-24T07:19:08.509Z,100.00
2024-03-24T07:24:11.211Z,100.00
2024-03-24T07:29:13.959Z,100.00
2024-03-24T07:34:16.955Z,100.00
2024-03-24T07:39:19.685Z,100.00
2024-03-24T07:44:22.469Z,100.00
2024-03-24T07:49:25.121Z,100.00
2024-03-24T07:54:28.129Z,100.00
2024-03-24T07:59:31.274Z,100.00
2024-03-24T08:04:33.956Z,100.00
2024-03-24T08:09:36.742Z,99.85
2024-03-24T08:14:42.021Z,99.44
2024-03-24T08:19:44.667Z,99.07
2024-03-24T08:24:47.777Z,98.18
2024-03-24T08:29:50.502Z,97.57
2024-03-24T08:34:53.268Z,97.62
2024-03-24T08:39:55.922Z,98.12
2024-03-24T08:44:58.584Z,97.24
2024-03-24T08:50:01.211Z,94.56
2024-03-24T08:55:04.355Z,95.52
2024-03-24T09:00:10.303Z,94.02
2024-03-24T09:05:13.018Z,92.07
2024-03-24T09:10:15.780Z,89.63
2024-03-24T09:15:20.191Z,90.14
2024-03-24T09:20:22.875Z,88.94
2024-03-24T09:25:25.646Z,87.21
2024-03-24T09:30:28.395Z,84.27
2024-03-24T09:35:32.771Z,84.56
2024-03-24T09:40:37.078Z,82.70
2024-03-24T09:45:40.181Z,83.04
2024-03-24T09:50:44.125Z,83.21
2024-03-24T09:55:47.232Z,81.74
2024-03-24T10:00:50.192Z,81.88
2024-03-24T10:05:53.249Z,80.31
2024-03-24T10:10:56.202Z,77.84
2024-03-24T10:16:14.799Z,76.36
2024-03-24T10:21:21.457Z,76.90
2024-03-24T10:26:24.132Z,77.71
2024-03-24T10:31:26.863Z,78.07
2024-03-24T10:36:32.605Z,78.82
2024-03-24T10:41:36.626Z,78.01
2024-03-24T10:46:41.288Z,77.64
2024-03-24T10:51:44.836Z,77.35
2024-03-24T10:56:48.018Z,77.61
2024-03-24T11:01:51.986Z,74.96
2024-03-24T11:06:56.419Z,74.14
2024-03-24T11:11:59.625Z,73.36
2024-03-24T11:17:04.576Z,73.48
2024-03-24T11:22:08.478Z,72.68
2024-03-24T11:27:14.995Z,72.31
2024-03-24T11:32:18.228Z,73.24
2024-03-24T11:37:35.228Z,71.22
2024-03-24T11:42:40.068Z,69.85
2024-03-24T11:47:44.738Z,70.33
2024-03-24T11:52:50.957Z,71.01
2024-03-24T11:57:55.544Z,70.99
2024-03-24T12:02:58.533Z,71.60
2024-03-24T12:08:01.385Z,72.13
2024-03-24T12:13:04.529Z,70.81
2024-03-24T12:18:11.433Z,71.35
2024-03-24T12:23:16.863Z,66.38
2024-03-24T12:28:20.298Z,62.65
2024-03-24T12:33:24.948Z,59.06
2024-03-24T12:38:27.725Z,59.18
2024-03-24T12:43:31.572Z,59.25
2024-03-24T12:48:34.405Z,61.15
2024-03-24T12:54:01.648Z,60.09
2024-03-24T12:59:04.396Z,63.30
2024-03-24T13:04:08.316Z,64.54
2024-03-24T13:09:13.318Z,60.61
2024-03-24T13:14:16.110Z,58.02
2024-03-24T13:19:35.024Z,58.17
2024-03-24T13:24:45.569Z,55.45
2024-03-24T13:29:48.224Z,53.70
2024-03-24T13:34:51.276Z,51.41
2024-03-24T13:40:36.470Z,50.28
2024-03-24T13:46:16.690Z,51.53
2024-03-24T13:51:20.242Z,49.36
2024-03-24T13:56:22.931Z,50.26
2024-03-24T14:01:25.623Z,51.08
2024-03-24T14:06:28.380Z,52.88
2024-03-24T14:11:32.650Z,53.70
2024-03-24T14:16:48.392Z,55.30
2024-03-24T14:21:53.672Z,57.27
2024-03-24T14:26:56.305Z,58.09
2024-03-24T14:31:58.937Z,58.16
2024-03-24T14:37:13.853Z,58.65
2024-03-24T14:42:35.509Z,60.44
2024-03-24T14:48:04.925Z,62.57
2024-03-24T14:53:07.728Z,62.27
2024-03-24T14:58:10.401Z,60.98
2024-03-24T15:03:14.237Z,56.53
2024-03-24T15:08:17.138Z,57.03
2024-03-24T15:13:19.788Z,58.18
2024-03-24T15:18:22.429Z,60.37
2024-03-24T15:23:25.079Z,62.18
2024-03-24T15:28:27.812Z,64.44
2024-03-24T15:33:31.410Z,65.59
2024-03-24T15:38:34.097Z,63.42
2024-03-24T15:43:37.056Z,61.88
2024-03-24T15:48:40.076Z,62.48
2024-03-24T15:53:43.393Z,62.73
2024-03-24T15:59:06.892Z,62.11
2024-03-24T16:04:09.611Z,60.26
2024-03-24T16:09:19.260Z,59.95
2024-03-24T16:14:35.886Z,59.54
2024-03-24T16:19:38.700Z,59.31
2024-03-24T16:24:43.446Z,57.57
2024-03-24T16:29:47.765Z,57.27
2024-03-24T16:34:50.403Z,58.69
2024-03-24T16:39:53.102Z,59.88
2024-03-24T16:44:55.860Z,61.26
2024-03-24T16:49:59.062Z,62.88
2024-03-24T16:55:02.598Z,64.26
2024-03-24T17:00:06.765Z,65.38
2024-03-24T17:05:09.484Z,66.30
2024-03-24T17:10:12.239Z,67.42
2024-03-24T17:15:18.280Z,68.34
2024-03-24T17:20:21.049Z,69.33
2024-03-24T17:25:23.777Z,70.09
2024-03-24T17:30:30.316Z,70.76
2024-03-24T17:35:33.762Z,71.22
2024-03-24T17:40:36.525Z,71.74
2024-03-24T17:45:39.301Z,72.12
2024-03-24T17:50:42.155Z,72.61
2024-03-24T17:55:44.824Z,72.70
2024-03-24T18:00:47.508Z,73.30
2024-03-24T18:05:50.230Z,73.52
2024-03-24T18:10:52.939Z,73.90
2024-03-24T18:15:55.834Z,74.38
2024-03-24T18:21:01.108Z,75.08
2024-03-24T18:26:06.220Z,75.62
2024-03-24T18:31:08.924Z,76.12
2024-03-24T18:36:14.380Z,76.38
2024-03-24T18:41:18.414Z,76.72
2024-03-24T18:46:22.804Z,77.20
2024-03-24T18:51:25.738Z,77.30
2024-03-24T18:56:29.830Z,77.80
2024-03-24T19:01:32.539Z,77.86
2024-03-24T19:06:35.347Z,78.49
2024-03-24T19:11:41.596Z,78.74
2024-03-24T19:16:44.368Z,78.72
2024-03-24T19:21:47.316Z,78.73
2024-03-24T19:26:50.072Z,78.94
2024-03-24T19:31:52.964Z,79.34
2024-03-24T19:36:57.153Z,79.18
2024-03-24T19:42:00.657Z,79.43
2024-03-24T19:47:05.251Z,79.52
2024-03-24T19:52:08.988Z,80.00
2024-03-24T19:57:13.493Z,80.48
2024-03-24T20:02:16.189Z,80.70
2024-03-24T20:07:24.296Z,80.86
2024-03-24T20:12:28.298Z,81.36
2024-03-24T20:17:31.035Z,81.29
2024-03-24T20:22:34.616Z,81.70
2024-03-24T20:27:37.378Z,81.84
2024-03-24T20:32:40.599Z,81.61
2024-03-24T20:37:43.395Z,81.91
2024-03-24T20:42:47.051Z,82.02
2024-03-24T20:47:49.679Z,82.44
2024-03-24T20:52:53.019Z,82.71
2024-03-24T20:57:56.992Z,83.30
2024-03-24T21:03:00.079Z,83.36
2024-03-24T21:08:02.924Z,83.75
2024-03-24T21:13:05.647Z,83.83
2024-03-24T21:18:08.391Z,84.04
2024-03-24T21:23:12.620Z,84.26
2024-03-24T21:28:17.114Z,84.64
2024-03-24T21:33:23.086Z,84.51
2024-03-24T21:38:44.183Z,84.20
2024-03-24T21:43:46.826Z,84.57
2024-03-24T21:48:49.429Z,84.80
2024-03-24T21:53:52.028Z,84.82
2024-03-24T21:58:55.977Z,85.25
2024-03-24T22:03:58.570Z,85.59
2024-03-24T22:09:01.148Z,85.76
2024-03-24T22:14:03.799Z,85.82
2024-03-24T22:19:07.208Z,86.15
2024-03-24T22:24:09.818Z,86.72
2024-03-24T22:29:13.733Z,86.92
2024-03-24T22:34:17.772Z,87.16
2024-03-24T22:39:20.713Z,87.60
2024-03-24T22:44:23.431Z,87.40
2024-03-24T22:49:26.221Z,87.85
2024-03-24T22:54:28.835Z,88.16
2024-03-24T22:59:33.340Z,88.13
2024-03-24T23:04:36.132Z,88.36
2024-03-24T23:09:39.867Z,88.34
2024-03-24T23:14:42.505Z,88.48
2024-03-24T23:19:45.199Z,88.68
2024-03-24T23:24:48.193Z,88.46
2024-03-24T23:29:50.993Z,88.71
2024-03-24T23:34:53.631Z,88.62
2024-03-24T23:39:57.264Z,88.59
2024-03-24T23:45:00.428Z,89.07
2024-03-24T23:50:03.444Z,89.16
2024-03-24T23:55:08.276Z,88.96
